Racine, WV (25165)

8:45 PM EDT on July 22, 2017 (GMT -0400)
Casey Fork | | Change Station
Active Advisory: Severe Thunderstorm Watch

Elev 787 ft 38.18 °N, 81.68 °W | Updated 20 seconds ago

Partly Cloudy
Partly Cloudy
82.1 °F
Feels Like 90 °F
N
0.0
Wind Variable Wind from ESE

Today
High -- | Low -- °F
--% Chance of Precip.
Yesterday
High -- | Low -- °F
Precip. -- in
Pressure 29.81 in
Visibility 8.0 miles
Clouds Scattered Clouds 5000 ft
Scattered Clouds 11000 ft
Mostly Cloudy 20000 ft
Heat Index 90 °F
Dew Point 77 °F
Humidity 85%
Rainfall 0.00 in
Snow Depth Not available.
6:21 AM 8:44 PM
Waning Crescent, 0% visible
METAR KCRW 222354Z 22008KT 8SM SCT050 SCT110 BKN200 31/23 A2984 RMK AO2 SLP092 T03060233 10322 20306 51010
Pressure 29.81 in
Visibility 8.0 miles
Clouds Scattered Clouds 5000 ft
Scattered Clouds 11000 ft
Mostly Cloudy 20000 ft
Heat Index 90 °F
Dew Point 77 °F
Humidity 85%
Rainfall 0.00 in
Snow Depth Not available.
6:21 AM 8:44 PM
Waning Crescent, 0% visible
METAR KCRW 222354Z 22008KT 8SM SCT050 SCT110 BKN200 31/23 A2984 RMK AO2 SLP092 T03060233 10322 20306 51010

Get Your Daily Forecast Email!

Thanks for signing up!

Be on the lookout for a verification email in your inbox.

You'll start receiving severe weather alerts in your inbox..

×

10-Day Weather Forecast

Almanac

Astronomy

Jul. 22, 2017 Rise Set
Actual Time
Civil Twilight
Nautical Twilight
Astronomical Twilight
Moon
Length of Visible Light
Length of Day
Tomorrow will be .
, % of the Moon is Illuminated

Today's Extremes

State Highs State Lows

Community

WunderPhotos

Category 6

Welcome to Category 6. This is the collective home for Weather Underground's featured writeups by Dr. Jeff Masters (right), Bob Henson (left), Chris Burt, and other regular contributors.

Nearby

Air Quality

  Air Quality AQ Index Pollutant
Not available.

Snow Depth

Station Depth Elevation

Earthquake Activity

City Distance Mag. Time & Date
Minimum magnitude displayed is 2.5.

Coastal Water Temperatures

Place Temperature

Stations

Nearby Weather Stations

Station Location Temp. Windchill Dew Point Humidity Wind Precip. Elev Updated Type
                   

Watches & Warnings

Severe Thunderstorm Watch
Issued: 8:24 PM EDT Jul. 22, 2017 – National Weather Service

Severe Thunderstorm Watch 432 remains in effect until 1000 PM EDT

WV
. West Virginia counties included are

Boone Braxton Cabell
Calhoun Clay Fayette
Gilmer Jackson Kanawha
Lincoln Mason Nicholas
Pocahontas Putnam Randolph
Roane Webster